Time;durP1;ratioP1;P1;durP2;ratioP2;P2;SDS_P1;SDS_P2;PMS_P1;PMS_P2;Temp;Humidity;BMP_temperature;BMP_pressure;BME280_temperature;BME280_humidity;BME280_pressure;Samples;Min_cycle;Max_cycle;Signal;HPM_P1;HPM_P2
2022/10/13 00:00:59;;;;;;;;;;;;;;;14.38;59.43;101539.56;4974232;28;19918;-60
2022/10/13 00:03:25;;;;;;;;;;;;;;;14.44;59.25;101539.41;4973760;28;19918;-60
2022/10/13 00:05:50;;;;;;;;;;;;;;;14.46;59.07;101543.78;4974667;28;20286;-60
2022/10/13 00:08:18;;;;;;;;;;;;;;;14.44;59.01;101534.13;4974512;28;19918;-61
2022/10/13 00:10:44;;;;;;;;;;;;;;;14.22;59.49;101534.56;4974244;28;19921;-62
2022/10/13 00:13:09;;;;;;;;;;;;;;;14.13;59.68;101537.38;4975113;28;19918;-61
2022/10/13 00:15:39;;;;;;;;;;;;;;;14.15;59.73;101530.28;4975510;28;19929;-62
2022/10/13 00:18:04;;;;;;;;;;;;;;;14.18;59.64;101526.72;4973301;28;19925;-61
2022/10/13 00:20:29;;;;;;;;;;;;;;;13.97;60.35;101533.25;4968593;28;20297;-61
2022/10/13 00:22:55;;;;;;;;;;;;;;;13.82;60.78;101525.59;4974382;28;19926;-59
2022/10/13 00:25:20;;;;;;;;;;;;;;;13.83;60.82;101522.91;4973512;28;19969;-60
2022/10/13 00:27:45;;;;;;;;;;;;;;;13.79;60.88;101522.09;4975228;28;20338;-61
2022/10/13 00:30:10;;;;;;;;;;;;;;;13.83;60.88;101520.28;4974165;28;19930;-62
2022/10/13 00:32:36;;;;;;;;;;;;;;;13.85;60.90;101517.63;4975431;28;19976;-61
2022/10/13 00:35:01;;;;;;;;;;;;;;;13.83;60.85;101522.03;4973571;28;19921;-60
2022/10/13 00:37:26;;;;;;;;;;;;;;;13.89;60.61;101524.59;4973399;28;19957;-60
2022/10/13 00:39:52;;;;;;;;;;;;;;;13.98;60.59;101525.28;4972617;28;20025;-59
2022/10/13 00:42:17;;;;;;;;;;;;;;;14.09;60.40;101526.88;4973747;28;19922;-60
2022/10/13 00:45:01;;;;;;;;;;;;;;;14.16;60.02;101524.09;4975272;28;19922;-60
2022/10/13 00:47:29;;;;;;;;;;;;;;;14.13;60.02;101532.09;4974769;28;19964;-62
2022/10/13 00:49:55;;;;;;;;;;;;;;;14.19;59.84;101534.59;4973992;28;19918;-61
2022/10/13 00:52:20;;;;;;;;;;;;;;;14.25;59.65;101533.63;4974356;28;20404;-62
2022/10/13 00:54:47;;;;;;;;;;;;;;;14.29;59.56;101536.19;4972744;28;19922;-62
2022/10/13 00:57:12;;;;;;;;;;;;;;;14.34;59.37;101529.94;4974510;28;20360;-62
2022/10/13 00:59:38;;;;;;;;;;;;;;;14.38;59.49;101534.28;5006362;28;19917;-62
2022/10/13 01:02:04;;;;;;;;;;;;;;;14.42;59.18;101542.09;4973634;28;19922;-61
2022/10/13 01:04:32;;;;;;;;;;;;;;;14.42;59.04;101534.19;4974639;28;19929;-62
2022/10/13 01:06:57;;;;;;;;;;;;;;;14.44;59.15;101524.47;4974026;28;19918;-60
2022/10/13 01:09:22;;;;;;;;;;;;;;;14.44;58.83;101526.19;4974127;28;19929;-61
2022/10/13 01:12:10;;;;;;;;;;;;;;;14.45;58.71;101526.19;4971397;28;20012;-61
2022/10/13 01:14:38;;;;;;;;;;;;;;;14.46;58.57;101516.47;4969219;28;19918;-62
2022/10/13 01:17:08;;;;;;;;;;;;;;;14.47;58.42;101513.78;4974271;28;20124;-61
2022/10/13 01:19:36;;;;;;;;;;;;;;;14.53;58.38;101520.78;4973749;28;20289;-61
2022/10/13 01:22:17;;;;;;;;;;;;;;;14.53;58.29;101521.66;4972131;28;19918;-61
2022/10/13 01:24:42;;;;;;;;;;;;;;;14.49;58.17;101519.97;4972535;28;20002;-61
2022/10/13 01:27:10;;;;;;;;;;;;;;;14.48;58.28;101525.25;4972629;28;20431;-61
2022/10/13 01:29:48;;;;;;;;;;;;;;;14.50;58.29;101521.72;4975378;28;19921;-62
2022/10/13 01:32:28;;;;;;;;;;;;;;;14.51;58.12;101526.09;4963612;28;19926;-60
2022/10/13 01:35:15;;;;;;;;;;;;;;;14.46;58.25;101517.34;4972813;28;19918;-61
2022/10/13 01:37:52;;;;;;;;;;;;;;;14.48;58.45;101504.97;4970806;28;20293;-62
2022/10/13 01:40:22;;;;;;;;;;;;;;;14.56;58.23;101506.59;4971457;28;20433;-61
2022/10/13 01:42:53;;;;;;;;;;;;;;;14.58;58.14;101505.69;4974249;28;20416;-62
2022/10/13 01:45:21;;;;;;;;;;;;;;;14.59;58.08;101511.84;4971470;28;19944;-62
2022/10/13 01:47:47;;;;;;;;;;;;;;;14.56;58.14;101496.91;4974386;28;19918;-61
2022/10/13 01:50:13;;;;;;;;;;;;;;;14.53;58.30;101497.00;4973422;28;20295;-60
2022/10/13 01:52:40;;;;;;;;;;;;;;;14.49;58.24;101503.25;4974081;28;19925;-60
2022/10/13 01:55:07;;;;;;;;;;;;;;;14.40;58.45;101495.44;4977994;28;19925;-61
2022/10/13 01:57:34;;;;;;;;;;;;;;;14.27;58.82;101493.03;4977118;28;20000;-61
2022/10/13 02:00:01;;;;;;;;;;;;;;;14.32;58.98;101492.94;4978016;28;19984;-61
2022/10/13 02:02:30;;;;;;;;;;;;;;;14.34;58.88;101499.09;4971222;28;19973;-60
2022/10/13 02:05:01;;;;;;;;;;;;;;;14.30;58.69;101495.63;4978306;28;19914;-61
2022/10/13 02:07:47;;;;;;;;;;;;;;;14.29;58.65;101493.03;4972971;28;19918;-60
2022/10/13 02:10:26;;;;;;;;;;;;;;;14.38;58.45;101490.19;4974677;28;20380;-59
2022/10/13 02:13:11;;;;;;;;;;;;;;;14.35;58.34;101477.03;4970674;28;19922;-60
2022/10/13 02:15:42;;;;;;;;;;;;;;;14.45;58.08;101477.72;4976723;28;19922;-61
2022/10/13 02:18:08;;;;;;;;;;;;;;;14.46;57.83;101472.41;4978397;28;19918;-60
2022/10/13 02:20:34;;;;;;;;;;;;;;;14.43;57.78;101474.22;4976973;28;19921;-61
2022/10/13 02:23:01;;;;;;;;;;;;;;;14.44;57.80;101481.25;4977279;28;19918;-61
2022/10/13 02:25:27;;;;;;;;;;;;;;;14.49;57.75;101471.50;4971374;28;19918;-61
2022/10/13 02:27:53;;;;;;;;;;;;;;;14.51;57.57;101462.63;4977316;28;19925;-61
2022/10/13 02:30:19;;;;;;;;;;;;;;;14.42;57.78;101468.06;4976219;28;19921;-61
2022/10/13 02:32:45;;;;;;;;;;;;;;;14.38;57.77;101470.81;4976620;28;20381;-61
2022/10/13 02:35:10;;;;;;;;;;;;;;;14.37;57.96;101463.78;4977029;28;19976;-61
2022/10/13 02:37:35;;;;;;;;;;;;;;;14.40;57.89;101464.59;4977657;28;20036;-61
2022/10/13 02:40:01;;;;;;;;;;;;;;;14.48;57.82;101467.06;4975090;28;20295;-60
2022/10/13 02:42:26;;;;;;;;;;;;;;;14.49;57.86;101467.09;4975808;28;20005;-60
2022/10/13 02:44:51;;;;;;;;;;;;;;;14.52;57.81;101460.84;4976626;28;19922;-60
2022/10/13 02:47:16;;;;;;;;;;;;;;;14.46;57.73;101459.19;4974711;28;19922;-59
2022/10/13 02:49:42;;;;;;;;;;;;;;;14.48;57.93;101459.13;4975502;28;20009;-60
2022/10/13 02:52:07;;;;;;;;;;;;;;;14.45;58.09;101460.09;4973645;28;19918;-61
2022/10/13 02:54:32;;;;;;;;;;;;;;;14.46;58.24;101453.03;4974277;28;19973;-61
2022/10/13 02:56:58;;;;;;;;;;;;;;;14.44;58.33;101450.41;4974618;28;19918;-65
2022/10/13 02:59:23;;;;;;;;;;;;;;;14.47;58.22;101455.63;4975667;28;20009;-61
2022/10/13 03:01:48;;;;;;;;;;;;;;;14.52;58.24;101444.97;4974276;28;19930;-61
2022/10/13 03:04:13;;;;;;;;;;;;;;;14.51;58.53;101446.75;4975282;28;20012;-60
2022/10/13 03:06:39;;;;;;;;;;;;;;;14.51;58.61;101446.75;4972418;28;19922;-61
2022/10/13 03:09:04;;;;;;;;;;;;;;;14.51;58.53;101452.03;4974840;28;19961;-61
2022/10/13 03:11:29;;;;;;;;;;;;;;;14.50;58.55;101449.44;4975387;28;19977;-60
2022/10/13 03:13:55;;;;;;;;;;;;;;;14.48;58.73;101451.19;4973874;28;19922;-61
2022/10/13 03:16:20;;;;;;;;;;;;;;;14.49;58.95;101451.22;5005848;28;21987;-60
2022/10/13 03:18:45;;;;;;;;;;;;;;;14.51;58.74;101451.16;4974878;28;19926;-61
2022/10/13 03:21:11;;;;;;;;;;;;;;;14.53;58.63;101452.91;4975893;28;19965;-61
2022/10/13 03:23:36;;;;;;;;;;;;;;;14.52;58.66;101447.63;4972809;28;19922;-61
2022/10/13 03:26:01;;;;;;;;;;;;;;;14.50;58.70;101454.72;4975600;28;20366;-61
2022/10/13 03:28:27;;;;;;;;;;;;;;;14.49;58.79;101453.88;4975617;28;20016;-61
2022/10/13 03:31:05;;;;;;;;;;;;;;;14.51;58.81;101445.88;4974382;28;19918;-61
2022/10/13 03:33:31;;;;;;;;;;;;;;;14.56;58.77;101449.28;4974780;28;19921;-61
2022/10/13 03:36:00;;;;;;;;;;;;;;;14.56;58.70;101444.00;4974570;28;20298;-61
2022/10/13 03:38:26;;;;;;;;;;;;;;;14.50;58.93;101441.50;4975049;28;20012;-61
2022/10/13 03:40:51;;;;;;;;;;;;;;;14.45;59.02;101444.22;4973109;28;20028;-60
2022/10/13 03:43:17;;;;;;;;;;;;;;;14.41;59.02;101429.31;4975027;28;19925;-61
2022/10/13 03:45:42;;;;;;;;;;;;;;;14.38;59.12;101434.66;4934165;28;1171365;-61
2022/10/13 03:48:07;;;;;;;;;;;;;;;14.43;59.01;101431.91;4975470;28;19925;-62
2022/10/13 03:50:33;;;;;;;;;;;;;;;14.40;58.91;101432.88;4975007;28;19973;-60
2022/10/13 03:52:58;;;;;;;;;;;;;;;14.41;58.96;101434.63;4974203;28;19925;-61
2022/10/13 03:55:23;;;;;;;;;;;;;;;14.33;59.09;101428.63;4975251;28;20393;-61
2022/10/13 03:57:48;;;;;;;;;;;;;;;14.35;58.90;101428.56;4973790;28;19972;-61
2022/10/13 04:00:14;;;;;;;;;;;;;;;14.35;58.59;101424.16;4974985;28;20060;-61
2022/10/13 04:02:39;;;;;;;;;;;;;;;14.34;58.56;101430.34;4974775;28;20282;-60
2022/10/13 04:05:05;;;;;;;;;;;;;;;14.34;58.48;101430.34;4975816;28;19918;-61
2022/10/13 04:07:30;;;;;;;;;;;;;;;14.34;58.40;101430.34;4974264;28;19922;-61
2022/10/13 04:09:56;;;;;;;;;;;;;;;14.36;58.32;101431.16;4971622;28;19925;-62
2022/10/13 04:12:21;;;;;;;;;;;;;;;14.36;58.17;101428.53;4975923;28;19976;-61
2022/10/13 04:14:46;;;;;;;;;;;;;;;14.35;58.25;101426.78;4973710;28;19918;-61
2022/10/13 04:17:12;;;;;;;;;;;;;;;14.34;58.20;101426.84;4975561;28;20362;-61
2022/10/13 04:19:37;;;;;;;;;;;;;;;14.28;58.27;101427.81;4972767;28;19993;-61
2022/10/13 04:22:03;;;;;;;;;;;;;;;14.23;58.28;101419.13;4975584;28;19922;-61
2022/10/13 04:24:28;;;;;;;;;;;;;;;14.20;58.30;101429.75;4973219;28;19928;-60
2022/10/13 04:26:53;;;;;;;;;;;;;;;14.18;58.34;101428.91;4975375;28;19947;-60
2022/10/13 04:29:19;;;;;;;;;;;;;;;14.10;58.44;101423.78;4973017;28;19988;-59
2022/10/13 04:31:44;;;;;;;;;;;;;;;14.03;58.56;101420.38;4974960;28;19925;-60
2022/10/13 04:34:10;;;;;;;;;;;;;;;14.00;58.74;101422.19;4974970;28;19922;-59
2022/10/13 04:36:36;;;;;;;;;;;;;;;13.92;59.31;101422.34;4973881;28;20458;-62
2022/10/13 04:39:01;;;;;;;;;;;;;;;13.86;59.00;101424.25;4975280;28;20021;-61
2022/10/13 04:41:27;;;;;;;;;;;;;;;13.84;59.16;101421.63;4973977;28;19918;-61
2022/10/13 04:43:52;;;;;;;;;;;;;;;13.72;59.38;101416.56;4974243;28;20009;-62
2022/10/13 04:46:22;;;;;;;;;;;;;;;13.54;59.55;101415.13;4974153;28;19922;-60
2022/10/13 04:48:48;;;;;;;;;;;;;;;13.43;59.90;101417.94;4973741;28;19918;-60
2022/10/13 04:51:15;;;;;;;;;;;;;;;13.19;60.12;101415.69;4971023;28;20366;-62
2022/10/13 04:53:40;;;;;;;;;;;;;;;13.07;60.76;101411.47;4972629;28;19918;-60
2022/10/13 04:56:07;;;;;;;;;;;;;;;12.95;60.94;101416.94;4974065;28;19956;-59
2022/10/13 04:58:33;;;;;;;;;;;;;;;12.76;61.30;101418.97;4972772;28;19945;-61
2022/10/13 05:00:58;;;;;;;;;;;;;;;12.58;61.95;101407.78;4971342;28;19918;-58
2022/10/13 05:03:24;;;;;;;;;;;;;;;12.57;62.70;101416.59;4974162;28;19918;-61
2022/10/13 05:05:50;;;;;;;;;;;;;;;12.48;62.63;101408.78;4973717;28;20437;-61
2022/10/13 05:08:15;;;;;;;;;;;;;;;12.45;62.30;101411.50;4971647;28;19957;-62
2022/10/13 05:10:40;;;;;;;;;;;;;;;12.39;62.49;101406.28;4968624;28;20371;-64
2022/10/13 05:13:06;;;;;;;;;;;;;;;12.38;62.75;101407.19;4972806;28;19930;-61
2022/10/13 05:15:31;;;;;;;;;;;;;;;12.28;62.80;101409.03;4973002;28;19985;-60
2022/10/13 05:17:57;;;;;;;;;;;;;;;12.26;63.17;101407.34;4971799;28;19929;-62
2022/10/13 05:20:22;;;;;;;;;;;;;;;12.21;63.50;101402.13;4974489;28;20366;-63
2022/10/13 05:22:48;;;;;;;;;;;;;;;12.25;63.25;101408.25;4973170;28;19973;-62
2022/10/13 05:25:13;;;;;;;;;;;;;;;12.21;63.26;101398.63;4972862;28;19929;-62
2022/10/13 05:27:38;;;;;;;;;;;;;;;12.29;66.68;101407.31;4971726;28;19957;-61
2022/10/13 05:30:04;;;;;;;;;;;;;;;12.31;63.67;101408.16;4971707;28;19924;-61
2022/10/13 05:32:29;;;;;;;;;;;;;;;12.33;63.15;101406.38;4982077;28;19918;-61
2022/10/13 05:34:54;;;;;;;;;;;;;;;12.36;62.98;101403.69;4975804;28;19949;-61
2022/10/13 05:37:21;;;;;;;;;;;;;;;12.36;63.03;101401.03;4979459;28;19968;-63
2022/10/13 05:39:47;;;;;;;;;;;;;;;12.32;62.75;101405.47;4975012;28;20027;-62
2022/10/13 05:42:12;;;;;;;;;;;;;;;12.34;62.82;101405.47;4974849;28;20358;-62
2022/10/13 05:44:37;;;;;;;;;;;;;;;12.26;63.05;101399.44;4974956;28;19998;-62
2022/10/13 05:47:03;;;;;;;;;;;;;;;12.29;63.07;101395.00;4974453;28;19926;-62
2022/10/13 05:49:28;;;;;;;;;;;;;;;12.24;63.25;101394.16;4974875;28;19918;-62
2022/10/13 05:51:59;;;;;;;;;;;;;;;12.22;63.43;101395.09;4993560;28;19922;-61
2022/10/13 05:54:24;;;;;;;;;;;;;;;12.32;62.88;101391.44;4994337;28;19913;-61
2022/10/13 05:56:54;;;;;;;;;;;;;;;12.46;62.71;101397.41;4994177;28;19948;-62
2022/10/13 05:59:20;;;;;;;;;;;;;;;12.35;63.17;101387.91;4979647;28;20279;-63
2022/10/13 06:01:45;;;;;;;;;;;;;;;12.51;63.42;101387.66;4974266;28;19973;-62
2022/10/13 06:04:13;;;;;;;;;;;;;;;12.62;63.94;101384.03;4973057;28;19925;-61
2022/10/13 06:06:39;;;;;;;;;;;;;;;12.74;62.99;101383.84;4974196;28;19925;-63
2022/10/13 06:09:04;;;;;;;;;;;;;;;12.86;64.00;101381.03;4973401;28;19922;-62
2022/10/13 06:11:30;;;;;;;;;;;;;;;12.82;62.82;101380.19;4973731;28;20009;-62
2022/10/13 06:13:55;;;;;;;;;;;;;;;13.09;61.81;101372.75;5001835;28;19933;-61
2022/10/13 06:16:20;;;;;;;;;;;;;;;13.02;61.43;101371.09;5003284;28;19922;-62
2022/10/13 06:18:46;;;;;;;;;;;;;;;13.07;61.66;101367.50;4982245;28;20012;-63
2022/10/13 06:21:12;;;;;;;;;;;;;;;13.25;61.05;101374.28;4993320;28;19971;-62
2022/10/13 06:23:38;;;;;;;;;;;;;;;13.21;61.93;101376.97;4973778;28;19922;-63
2022/10/13 06:26:05;;;;;;;;;;;;;;;13.26;61.04;101368.09;4973761;28;19918;-62
2022/10/13 06:28:30;;;;;;;;;;;;;;;13.46;61.00;101375.66;4973486;28;19918;-61
2022/10/13 06:30:56;;;;;;;;;;;;;;;13.64;60.48;101381.50;4973970;28;19929;-61
2022/10/13 06:33:22;;;;;;;;;;;;;;;13.75;58.93;101382.19;4973445;28;20278;-62
2022/10/13 06:35:48;;;;;;;;;;;;;;;13.82;58.41;101381.16;4973358;28;19926;-62
2022/10/13 06:38:13;;;;;;;;;;;;;;;13.87;59.28;101379.31;4974465;28;20296;-62
2022/10/13 06:40:39;;;;;;;;;;;;;;;13.91;59.98;101380.97;4976923;28;20374;-62
2022/10/13 06:43:04;;;;;;;;;;;;;;;13.94;57.33;101380.06;4977650;28;20208;-61
2022/10/13 06:45:29;;;;;;;;;;;;;;;14.00;57.13;101383.47;4977391;28;19922;-63
2022/10/13 06:47:55;;;;;;;;;;;;;;;13.99;57.99;101378.19;4977403;28;19925;-63
2022/10/13 06:50:23;;;;;;;;;;;;;;;14.08;58.67;101382.41;4977263;28;20263;-62
2022/10/13 06:52:49;;;;;;;;;;;;;;;14.11;57.69;101377.94;4976790;28;19934;-62
2022/10/13 06:55:14;;;;;;;;;;;;;;;14.12;56.77;101384.09;4977030;28;19922;-62
2022/10/13 06:57:39;;;;;;;;;;;;;;;14.05;57.19;101381.59;4976871;28;20355;-63
2022/10/13 07:00:05;;;;;;;;;;;;;;;14.17;56.67;101383.13;4976546;28;19972;-62
2022/10/13 07:02:31;;;;;;;;;;;;;;;14.20;56.56;101377.78;4976904;28;20013;-62
2022/10/13 07:04:56;;;;;;;;;;;;;;;14.25;56.67;101369.75;4977183;28;19989;-62
2022/10/13 07:07:22;;;;;;;;;;;;;;;14.30;56.93;101360.78;5009293;28;20369;-63
2022/10/13 07:09:48;;;;;;;;;;;;;;;14.30;56.96;101358.16;4976481;28;19929;-63
2022/10/13 07:12:13;;;;;;;;;;;;;;;14.46;56.26;101358.69;4975325;28;19918;-62
2022/10/13 07:14:38;;;;;;;;;;;;;;;14.53;55.61;101356.81;4975955;28;19924;-62
2022/10/13 07:17:04;;;;;;;;;;;;;;;14.60;56.24;101360.19;4976799;28;20283;-62
2022/10/13 07:19:29;;;;;;;;;;;;;;;14.71;56.28;101358.16;4976195;28;20289;-62
2022/10/13 07:21:55;;;;;;;;;;;;;;;14.80;56.53;101357.94;4972418;28;19930;-63
2022/10/13 07:24:20;;;;;;;;;;;;;;;14.89;57.81;101352.44;4973146;28;19914;-62
2022/10/13 07:26:45;;;;;;;;;;;;;;;15.11;56.12;101351.91;4976131;28;19930;-61
2022/10/13 07:29:11;;;;;;;;;;;;;;;15.18;54.29;101349.06;4976270;28;20332;-61
2022/10/13 07:31:36;;;;;;;;;;;;;;;15.23;54.51;101341.00;4976244;28;19969;-61
2022/10/13 07:34:03;;;;;;;;;;;;;;;15.30;54.26;101332.00;4975995;28;19922;-62
2022/10/13 07:36:29;;;;;;;;;;;;;;;15.39;53.08;101342.34;4976080;28;20025;-62
2022/10/13 07:38:54;;;;;;;;;;;;;;;15.55;55.22;101341.94;5006992;28;20000;-63
2022/10/13 07:41:19;;;;;;;;;;;;;;;15.75;54.14;101344.94;4976425;28;19925;-62
2022/10/13 07:43:45;;;;;;;;;;;;;;;15.78;53.43;101339.56;4976190;28;19936;-63
2022/10/13 07:46:13;;;;;;;;;;;;;;;15.82;52.08;101332.41;4969858;28;20330;-63
2022/10/13 07:48:39;;;;;;;;;;;;;;;15.83;54.06;101328.84;4974416;28;20005;-62
2022/10/13 07:51:06;;;;;;;;;;;;;;;15.99;53.68;101315.09;4968761;28;20012;-62
2022/10/13 07:53:31;;;;;;;;;;;;;;;16.19;55.18;101308.34;4975738;28;19918;-62
2022/10/13 07:56:00;;;;;;;;;;;;;;;16.38;52.49;101312.16;4975777;28;19973;-61
2022/10/13 07:58:25;;;;;;;;;;;;;;;16.59;52.28;101307.09;4975183;28;20020;-62
2022/10/13 08:00:55;;;;;;;;;;;;;;;16.66;51.17;101304.19;4976037;28;20013;-63
2022/10/13 08:03:20;;;;;;;;;;;;;;;16.79;51.08;101303.84;4975262;28;20377;-62
2022/10/13 08:05:45;;;;;;;;;;;;;;;16.64;49.83;101295.44;4984155;28;19926;-63
2022/10/13 08:08:10;;;;;;;;;;;;;;;16.91;50.69;101298.97;4976894;28;20034;-63
2022/10/13 08:10:36;;;;;;;;;;;;;;;17.11;50.21;101300.09;4976252;28;19918;-62
2022/10/13 08:13:01;;;;;;;;;;;;;;;17.26;50.26;101304.03;4964889;28;19922;-62
2022/10/13 08:15:26;;;;;;;;;;;;;;;17.36;48.83;101301.00;4959260;28;20005;-63
2022/10/13 08:17:52;;;;;;;;;;;;;;;17.41;49.70;101298.19;4975337;28;20128;-62
2022/10/13 08:20:17;;;;;;;;;;;;;;;17.45;49.47;101294.50;4975493;28;19929;-62
2022/10/13 08:22:42;;;;;;;;;;;;;;;17.44;49.86;101283.00;4975461;28;19922;-61
2022/10/13 08:25:08;;;;;;;;;;;;;;;17.53;49.17;101292.44;4975199;28;19929;-62
2022/10/13 08:27:33;;;;;;;;;;;;;;;17.73;49.38;101289.03;4975209;28;19922;-61
2022/10/13 08:29:58;;;;;;;;;;;;;;;17.79;48.98;101291.50;4975586;28;19930;-63
2022/10/13 08:32:24;;;;;;;;;;;;;;;17.76;48.88;101288.97;4975280;28;20396;-62
2022/10/13 08:34:49;;;;;;;;;;;;;;;17.73;49.78;101281.94;4975729;28;19914;-63
2022/10/13 08:37:16;;;;;;;;;;;;;;;17.78;48.30;101286.25;4975669;28;19918;-62
2022/10/13 08:39:41;;;;;;;;;;;;;;;17.78;48.77;101281.78;4975336;28;19917;-61
2022/10/13 08:42:17;;;;;;;;;;;;;;;18.02;49.73;101281.78;4975879;28;20012;-63
2022/10/13 08:44:48;;;;;;;;;;;;;;;18.09;47.78;101280.63;4975756;28;19922;-63
2022/10/13 08:47:20;;;;;;;;;;;;;;;18.26;48.66;101279.97;4976166;28;19924;-62
2022/10/13 08:49:45;;;;;;;;;;;;;;;18.28;48.32;101270.16;4975756;28;19914;-63
2022/10/13 08:52:15;;;;;;;;;;;;;;;18.35;47.28;101276.94;4975366;28;20029;-62
2022/10/13 08:54:40;;;;;;;;;;;;;;;18.28;47.06;101281.66;4975598;28;19914;-62
2022/10/13 08:57:07;;;;;;;;;;;;;;;18.31;47.27;101284.22;4976018;28;19918;-62
2022/10/13 08:59:33;;;;;;;;;;;;;;;18.34;48.20;101276.09;4975746;28;19913;-62
2022/10/13 09:01:58;;;;;;;;;;;;;;;18.42;48.43;101271.31;4975752;28;19980;-62
2022/10/13 09:04:27;;;;;;;;;;;;;;;18.59;47.35;101270.66;4975352;28;19921;-62
2022/10/13 09:06:55;;;;;;;;;;;;;;;18.73;46.02;101271.91;4975209;28;19937;-62
2022/10/13 09:09:20;;;;;;;;;;;;;;;18.77;47.30;101269.06;4975496;28;19918;-61
2022/10/13 09:11:47;;;;;;;;;;;;;;;18.85;46.58;101269.59;4976317;28;19918;-61
2022/10/13 09:14:24;;;;;;;;;;;;;;;18.93;47.46;101275.47;4975493;28;20274;-62
2022/10/13 09:16:50;;;;;;;;;;;;;;;18.95;45.79;101270.09;4975175;28;19994;-62
2022/10/13 09:19:18;;;;;;;;;;;;;;;18.98;46.18;101269.94;4975358;28;20358;-60
2022/10/13 09:21:43;;;;;;;;;;;;;;;19.07;47.29;101274.00;4974789;28;19956;-62
2022/10/13 09:24:19;;;;;;;;;;;;;;;19.08;45.59;101265.09;4975062;28;19954;-62
2022/10/13 09:26:45;;;;;;;;;;;;;;;19.14;45.65;101265.69;4975255;28;20005;-63
2022/10/13 09:29:15;;;;;;;;;;;;;;;19.20;45.20;101272.56;4975074;28;20376;-63
2022/10/13 09:31:40;;;;;;;;;;;;;;;19.15;45.69;101266.53;4975076;28;19920;-62
2022/10/13 09:34:22;;;;;;;;;;;;;;;19.22;45.46;101260.03;4975208;28;19922;-62
2022/10/13 09:36:54;;;;;;;;;;;;;;;19.30;44.55;101262.34;4975354;28;19914;-62
2022/10/13 09:39:20;;;;;;;;;;;;;;;19.25;45.43;101259.91;4975003;28;19914;-62
2022/10/13 09:41:45;;;;;;;;;;;;;;;19.35;45.20;101258.56;4975171;28;19925;-62
2022/10/13 09:44:25;;;;;;;;;;;;;;;19.48;45.72;101255.38;4974878;28;20544;-62
2022/10/13 09:46:52;;;;;;;;;;;;;;;19.57;44.39;101253.13;4974643;28;19918;-61
2022/10/13 09:49:33;;;;;;;;;;;;;;;19.66;44.15;101259.88;4975186;28;20037;-62
2022/10/13 09:52:00;;;;;;;;;;;;;;;19.74;44.58;101249.72;4974610;28;20282;-62
2022/10/13 09:54:46;;;;;;;;;;;;;;;19.78;44.46;101242.44;4974814;28;19935;-62
2022/10/13 09:57:37;;;;;;;;;;;;;;;19.86;42.77;101243.81;4974343;28;19914;-62
2022/10/13 10:00:06;;;;;;;;;;;;;;;19.91;43.33;101247.16;4972683;28;19914;-62
2022/10/13 10:02:37;;;;;;;;;;;;;;;19.80;43.32;101236.13;4970648;28;19921;-59
2022/10/13 10:05:23;;;;;;;;;;;;;;;19.80;43.54;101237.94;4972890;28;19945;-62
2022/10/13 10:07:49;;;;;;;;;;;;;;;19.93;44.61;101242.59;4972864;28;19973;-63
2022/10/13 10:10:23;;;;;;;;;;;;;;;20.03;43.67;101236.81;4990450;28;20345;-62
2022/10/13 10:12:49;;;;;;;;;;;;;;;20.09;43.47;101233.88;4964075;28;19930;-62
2022/10/13 10:15:18;;;;;;;;;;;;;;;19.92;42.64;101230.22;4978346;28;19922;-62
2022/10/13 10:17:48;;;;;;;;;;;;;;;20.09;43.25;101215.22;4977476;28;20401;-62
2022/10/13 10:20:16;;;;;;;;;;;;;;;20.17;43.32;101213.91;4978516;28;19968;-61
2022/10/13 10:22:41;;;;;;;;;;;;;;;20.21;42.74;101214.63;4978359;28;19914;-63
2022/10/13 10:25:15;;;;;;;;;;;;;;;20.24;43.38;101217.13;4979051;28;20289;-63
2022/10/13 10:27:43;;;;;;;;;;;;;;;20.20;41.72;101212.03;4971517;28;20056;-61
2022/10/13 10:30:15;;;;;;;;;;;;;;;20.10;42.64;101209.78;4979293;28;20014;-61
2022/10/13 10:32:53;;;;;;;;;;;;;;;20.14;43.29;101199.84;4978160;28;20267;-61
2022/10/13 10:35:31;;;;;;;;;;;;;;;20.20;42.86;101198.69;4978135;28;19960;-62
2022/10/13 10:38:04;;;;;;;;;;;;;;;20.19;41.83;101184.50;4978137;28;20386;-63
2022/10/13 10:40:33;;;;;;;;;;;;;;;20.34;44.33;101185.50;4978266;28;19914;-61
2022/10/13 10:43:14;;;;;;;;;;;;;;;20.35;44.04;101185.47;4978103;28;20377;-62
2022/10/13 10:45:39;;;;;;;;;;;;;;;20.47;43.28;101185.75;4977876;28;19929;-62
2022/10/13 10:48:22;;;;;;;;;;;;;;;20.46;43.09;101170.69;4978181;28;19914;-61
2022/10/13 10:50:49;;;;;;;;;;;;;;;20.53;43.02;101164.16;4977811;28;20439;-63
2022/10/13 10:53:24;;;;;;;;;;;;;;;20.62;43.70;101171.69;4977649;28;20354;-62
2022/10/13 10:56:12;;;;;;;;;;;;;;;20.63;43.00;101165.41;4977996;28;19929;-63
2022/10/13 10:58:38;;;;;;;;;;;;;;;20.64;43.38;101167.13;4972288;28;19921;-63
2022/10/13 11:01:12;;;;;;;;;;;;;;;20.59;42.46;101156.69;4978084;28;19914;-61
2022/10/13 11:03:40;;;;;;;;;;;;;;;20.58;42.83;101146.94;4977607;28;20057;-62
2022/10/13 11:06:12;;;;;;;;;;;;;;;20.62;41.52;101142.31;4977723;28;20350;-62
2022/10/13 11:08:37;;;;;;;;;;;;;;;20.58;42.41;101146.09;4977677;28;20001;-62
2022/10/13 11:11:21;;;;;;;;;;;;;;;20.54;42.32;101142.69;4977678;28;20049;-63
2022/10/13 11:13:51;;;;;;;;;;;;;;;20.51;41.40;101144.69;4977469;28;19964;-63
2022/10/13 11:16:28;;;;;;;;;;;;;;;20.53;41.90;101134.78;4976679;28;19953;-63
2022/10/13 11:18:54;;;;;;;;;;;;;;;20.59;41.97;101142.50;4977885;28;19914;-63
2022/10/13 11:21:19;;;;;;;;;;;;;;;20.49;40.14;101149.22;4976884;28;20390;-63
2022/10/13 11:23:46;;;;;;;;;;;;;;;20.44;41.04;101141.44;4977200;28;19918;-63
2022/10/13 11:26:41;;;;;;;;;;;;;;;20.50;42.95;101140.28;4977089;28;19918;-63
2022/10/13 11:29:14;;;;;;;;;;;;;;;20.51;41.28;101139.34;4968608;28;19918;-63
2022/10/13 11:31:47;;;;;;;;;;;;;;;20.46;42.67;101138.66;4978644;28;19938;-64
2022/10/13 11:34:27;;;;;;;;;;;;;;;20.56;41.47;101137.31;4977115;28;19936;-62
2022/10/13 11:36:56;;;;;;;;;;;;;;;20.55;40.97;101130.25;4976870;28;19921;-62
2022/10/13 11:39:27;;;;;;;;;;;;;;;20.54;40.33;101125.81;4977163;28;19914;-63
2022/10/13 11:41:57;;;;;;;;;;;;;;;20.50;40.98;101122.44;4976555;28;20251;-62
2022/10/13 11:44:31;;;;;;;;;;;;;;;20.43;40.13;101119.22;4974561;28;20291;-64
2022/10/13 11:46:59;;;;;;;;;;;;;;;20.42;41.42;101112.13;4977037;28;20315;-63
2022/10/13 11:49:40;;;;;;;;;;;;;;;20.49;39.96;101114.53;4976827;28;19920;-63
2022/10/13 11:52:21;;;;;;;;;;;;;;;20.79;42.97;101115.63;4976645;28;19918;-62
2022/10/13 11:54:49;;;;;;;;;;;;;;;20.50;40.35;101108.25;4977085;28;19922;-62
2022/10/13 11:57:18;;;;;;;;;;;;;;;20.60;43.01;101107.69;4976659;28;19914;-62
2022/10/13 11:59:45;;;;;;;;;;;;;;;20.56;41.41;101105.28;4976477;28;19961;-62
2022/10/13 12:02:10;;;;;;;;;;;;;;;20.55;39.79;101103.56;4976420;28;19917;-63
2022/10/13 12:04:35;;;;;;;;;;;;;;;20.56;43.43;101107.94;4976780;28;20449;-63
2022/10/13 12:07:06;;;;;;;;;;;;;;;20.60;41.24;101096.16;4976551;28;19977;-63
2022/10/13 12:09:32;;;;;;;;;;;;;;;20.56;41.94;101097.25;4975269;28;19997;-62
2022/10/13 12:12:00;;;;;;;;;;;;;;;20.48;39.52;101088.75;4975951;28;19964;-62
2022/10/13 12:14:30;;;;;;;;;;;;;;;20.53;41.95;101090.25;4975619;28;19925;-62
2022/10/13 12:16:57;;;;;;;;;;;;;;;20.57;42.29;101093.63;4975619;28;19922;-62
2022/10/13 12:19:24;;;;;;;;;;;;;;;20.57;43.61;101081.16;4975677;28;19922;-62
2022/10/13 12:21:53;;;;;;;;;;;;;;;20.58;43.29;101090.03;4975367;28;19922;-63
2022/10/13 12:24:21;;;;;;;;;;;;;;;20.63;42.88;101093.34;4975396;28;19964;-62
2022/10/13 12:26:46;;;;;;;;;;;;;;;20.56;43.22;101090.09;4974968;28;19968;-62
2022/10/13 12:29:16;;;;;;;;;;;;;;;20.63;42.45;101082.66;4975120;28;20408;-62
2022/10/13 12:31:42;;;;;;;;;;;;;;;20.61;42.69;101085.38;4975567;28;19929;-63
2022/10/13 12:34:17;;;;;;;;;;;;;;;20.57;41.52;101072.28;4974859;28;20341;-62
2022/10/13 12:36:44;;;;;;;;;;;;;;;20.53;42.56;101076.06;4974251;28;20274;-63
2022/10/13 12:39:12;;;;;;;;;;;;;;;20.63;42.49;101071.97;4974798;28;20009;-63